sensor_id;sensor_type;location;lat;lon;timestamp;P1;durP1;ratioP1;P2;durP2;ratioP2
80823;SDS011;70228;59.128;37.936;2023-05-19T00:01:55;6.22;;;2.15;;
80823;SDS011;70228;59.128;37.936;2023-05-19T00:04:21;7.93;;;2.55;;
80823;SDS011;70228;59.128;37.936;2023-05-19T00:06:49;4.93;;;1.03;;
80823;SDS011;70228;59.128;37.936;2023-05-19T00:09:15;8.27;;;2.20;;
80823;SDS011;70228;59.128;37.936;2023-05-19T00:11:41;4.32;;;1.27;;
80823;SDS011;70228;59.128;37.936;2023-05-19T00:14:07;4.77;;;1.43;;
80823;SDS011;70228;59.128;37.936;2023-05-19T00:16:34;6.20;;;2.00;;
80823;SDS011;70228;59.128;37.936;2023-05-19T00:19:01;5.70;;;1.77;;
80823;SDS011;70228;59.128;37.936;2023-05-19T00:21:27;7.10;;;1.95;;
80823;SDS011;70228;59.128;37.936;2023-05-19T00:23:53;5.93;;;1.60;;
80823;SDS011;70228;59.128;37.936;2023-05-19T00:26:18;6.13;;;1.50;;
80823;SDS011;70228;59.128;37.936;2023-05-19T00:28:48;6.35;;;2.00;;
80823;SDS011;70228;59.128;37.936;2023-05-19T00:31:13;7.10;;;1.63;;
80823;SDS011;70228;59.128;37.936;2023-05-19T00:33:39;5.55;;;1.80;;
80823;SDS011;70228;59.128;37.936;2023-05-19T00:36:05;6.00;;;2.03;;
80823;SDS011;70228;59.128;37.936;2023-05-19T00:38:32;5.33;;;1.67;;
80823;SDS011;70228;59.128;37.936;2023-05-19T00:40:58;9.35;;;2.20;;
80823;SDS011;70228;59.128;37.936;2023-05-19T00:43:24;5.38;;;1.60;;
80823;SDS011;70228;59.128;37.936;2023-05-19T00:45:50;6.10;;;1.77;;
80823;SDS011;70228;59.128;37.936;2023-05-19T00:48:16;4.53;;;1.60;;
80823;SDS011;70228;59.128;37.936;2023-05-19T00:50:42;7.13;;;1.80;;
80823;SDS011;70228;59.128;37.936;2023-05-19T00:53:08;5.15;;;1.67;;
80823;SDS011;70228;59.128;37.936;2023-05-19T00:55:34;5.88;;;1.60;;
80823;SDS011;70228;59.128;37.936;2023-05-19T00:58:00;6.57;;;1.20;;
80823;SDS011;70228;59.128;37.936;2023-05-19T01:00:26;3.75;;;1.17;;
80823;SDS011;70228;59.128;37.936;2023-05-19T01:02:52;11.70;;;2.05;;
80823;SDS011;70228;59.128;37.936;2023-05-19T01:05:18;4.50;;;1.30;;
80823;SDS011;70228;59.128;37.936;2023-05-19T01:07:44;5.50;;;1.58;;
80823;SDS011;70228;59.128;37.936;2023-05-19T01:10:11;6.15;;;1.77;;
80823;SDS011;70228;59.128;37.936;2023-05-19T01:12:37;5.93;;;1.47;;
80823;SDS011;70228;59.128;37.936;2023-05-19T01:15:03;5.13;;;1.45;;
80823;SDS011;70228;59.128;37.936;2023-05-19T01:17:47;7.07;;;1.77;;
80823;SDS011;70228;59.128;37.936;2023-05-19T01:20:19;7.65;;;1.70;;
80823;SDS011;70228;59.128;37.936;2023-05-19T01:25:22;5.57;;;1.42;;
80823;SDS011;70228;59.128;37.936;2023-05-19T01:32:48;4.13;;;1.03;;
80823;SDS011;70228;59.128;37.936;2023-05-19T01:35:16;5.22;;;1.50;;
80823;SDS011;70228;59.128;37.936;2023-05-19T01:37:43;5.35;;;1.48;;
80823;SDS011;70228;59.128;37.936;2023-05-19T01:40:10;5.43;;;1.50;;
80823;SDS011;70228;59.128;37.936;2023-05-19T01:42:36;8.48;;;1.80;;
80823;SDS011;70228;59.128;37.936;2023-05-19T01:45:04;6.90;;;1.80;;
80823;SDS011;70228;59.128;37.936;2023-05-19T01:47:32;5.00;;;1.20;;
80823;SDS011;70228;59.128;37.936;2023-05-19T01:49:59;5.57;;;1.50;;
80823;SDS011;70228;59.128;37.936;2023-05-19T01:52:25;5.22;;;1.30;;
80823;SDS011;70228;59.128;37.936;2023-05-19T01:54:51;5.00;;;1.07;;
80823;SDS011;70228;59.128;37.936;2023-05-19T01:57:30;4.63;;;1.20;;
80823;SDS011;70228;59.128;37.936;2023-05-19T02:02:55;5.43;;;1.30;;
80823;SDS011;70228;59.128;37.936;2023-05-19T02:05:32;5.77;;;1.50;;
80823;SDS011;70228;59.128;37.936;2023-05-19T02:08:13;4.20;;;1.10;;
80823;SDS011;70228;59.128;37.936;2023-05-19T02:10:44;5.07;;;1.33;;
80823;SDS011;70228;59.128;37.936;2023-05-19T02:13:13;5.90;;;1.30;;
80823;SDS011;70228;59.128;37.936;2023-05-19T02:15:40;3.95;;;1.13;;
80823;SDS011;70228;59.128;37.936;2023-05-19T02:18:08;3.73;;;1.13;;
80823;SDS011;70228;59.128;37.936;2023-05-19T02:20:36;4.88;;;1.20;;
80823;SDS011;70228;59.128;37.936;2023-05-19T02:23:03;4.95;;;1.40;;
80823;SDS011;70228;59.128;37.936;2023-05-19T02:25:29;4.47;;;1.17;;
80823;SDS011;70228;59.128;37.936;2023-05-19T02:27:56;6.25;;;1.60;;
80823;SDS011;70228;59.128;37.936;2023-05-19T02:30:22;5.80;;;1.27;;
80823;SDS011;70228;59.128;37.936;2023-05-19T02:32:48;4.57;;;1.10;;
80823;SDS011;70228;59.128;37.936;2023-05-19T02:35:14;5.70;;;1.30;;
80823;SDS011;70228;59.128;37.936;2023-05-19T02:37:40;3.60;;;0.98;;
80823;SDS011;70228;59.128;37.936;2023-05-19T02:40:06;4.43;;;1.10;;
80823;SDS011;70228;59.128;37.936;2023-05-19T02:42:33;4.70;;;1.00;;
80823;SDS011;70228;59.128;37.936;2023-05-19T02:44:59;10.07;;;1.15;;
80823;SDS011;70228;59.128;37.936;2023-05-19T02:47:25;5.88;;;1.20;;
80823;SDS011;70228;59.128;37.936;2023-05-19T02:49:51;4.93;;;1.35;;
80823;SDS011;70228;59.128;37.936;2023-05-19T02:52:17;4.77;;;1.30;;
80823;SDS011;70228;59.128;37.936;2023-05-19T02:54:42;3.83;;;1.05;;
80823;SDS011;70228;59.128;37.936;2023-05-19T02:57:08;5.75;;;1.67;;
80823;SDS011;70228;59.128;37.936;2023-05-19T02:59:35;4.70;;;1.35;;
80823;SDS011;70228;59.128;37.936;2023-05-19T03:02:02;7.93;;;1.57;;
80823;SDS011;70228;59.128;37.936;2023-05-19T03:04:28;5.22;;;1.17;;
80823;SDS011;70228;59.128;37.936;2023-05-19T03:06:54;5.75;;;1.30;;
80823;SDS011;70228;59.128;37.936;2023-05-19T03:09:20;5.10;;;1.30;;
80823;SDS011;70228;59.128;37.936;2023-05-19T03:11:46;6.03;;;1.95;;
80823;SDS011;70228;59.128;37.936;2023-05-19T03:14:12;6.47;;;1.67;;
80823;SDS011;70228;59.128;37.936;2023-05-19T03:16:39;4.47;;;1.50;;
80823;SDS011;70228;59.128;37.936;2023-05-19T03:19:06;5.30;;;1.60;;
80823;SDS011;70228;59.128;37.936;2023-05-19T03:21:32;4.80;;;1.60;;
80823;SDS011;70228;59.128;37.936;2023-05-19T03:23:59;6.25;;;1.83;;
80823;SDS011;70228;59.128;37.936;2023-05-19T03:26:26;4.67;;;0.90;;
80823;SDS011;70228;59.128;37.936;2023-05-19T03:28:51;6.72;;;1.33;;
80823;SDS011;70228;59.128;37.936;2023-05-19T03:31:17;6.30;;;1.33;;
80823;SDS011;70228;59.128;37.936;2023-05-19T03:33:46;4.68;;;1.30;;
80823;SDS011;70228;59.128;37.936;2023-05-19T03:36:12;5.63;;;1.27;;
80823;SDS011;70228;59.128;37.936;2023-05-19T03:38:38;4.47;;;1.00;;
80823;SDS011;70228;59.128;37.936;2023-05-19T03:41:04;6.80;;;1.50;;
80823;SDS011;70228;59.128;37.936;2023-05-19T03:43:30;7.80;;;1.52;;
80823;SDS011;70228;59.128;37.936;2023-05-19T03:45:56;5.65;;;1.40;;
80823;SDS011;70228;59.128;37.936;2023-05-19T03:48:22;7.63;;;1.40;;
80823;SDS011;70228;59.128;37.936;2023-05-19T03:50:48;7.68;;;1.30;;
80823;SDS011;70228;59.128;37.936;2023-05-19T03:53:14;5.80;;;1.35;;
80823;SDS011;70228;59.128;37.936;2023-05-19T03:55:40;5.80;;;1.33;;
80823;SDS011;70228;59.128;37.936;2023-05-19T03:58:06;6.03;;;1.30;;
80823;SDS011;70228;59.128;37.936;2023-05-19T04:00:32;6.97;;;1.30;;
80823;SDS011;70228;59.128;37.936;2023-05-19T04:02:58;6.00;;;1.38;;
80823;SDS011;70228;59.128;37.936;2023-05-19T04:05:24;5.57;;;1.25;;
80823;SDS011;70228;59.128;37.936;2023-05-19T04:07:50;5.78;;;1.20;;
80823;SDS011;70228;59.128;37.936;2023-05-19T04:10:16;5.97;;;1.60;;
80823;SDS011;70228;59.128;37.936;2023-05-19T04:12:43;6.27;;;1.30;;
80823;SDS011;70228;59.128;37.936;2023-05-19T04:15:09;5.07;;;1.25;;
80823;SDS011;70228;59.128;37.936;2023-05-19T04:17:36;5.28;;;1.27;;
80823;SDS011;70228;59.128;37.936;2023-05-19T04:20:02;9.82;;;4.10;;
80823;SDS011;70228;59.128;37.936;2023-05-19T04:22:30;7.87;;;2.50;;
80823;SDS011;70228;59.128;37.936;2023-05-19T04:24:56;7.38;;;1.70;;
80823;SDS011;70228;59.128;37.936;2023-05-19T04:27:23;7.05;;;2.35;;
80823;SDS011;70228;59.128;37.936;2023-05-19T04:29:49;6.03;;;1.45;;
80823;SDS011;70228;59.128;37.936;2023-05-19T04:32:15;4.70;;;1.20;;
80823;SDS011;70228;59.128;37.936;2023-05-19T04:34:42;5.50;;;1.30;;
80823;SDS011;70228;59.128;37.936;2023-05-19T04:37:10;5.15;;;1.40;;
80823;SDS011;70228;59.128;37.936;2023-05-19T04:39:37;5.43;;;1.40;;
80823;SDS011;70228;59.128;37.936;2023-05-19T04:42:08;5.63;;;1.30;;
80823;SDS011;70228;59.128;37.936;2023-05-19T04:44:39;7.00;;;1.60;;
80823;SDS011;70228;59.128;37.936;2023-05-19T04:47:08;7.93;;;1.63;;
80823;SDS011;70228;59.128;37.936;2023-05-19T04:49:34;5.78;;;1.25;;
80823;SDS011;70228;59.128;37.936;2023-05-19T04:52:04;3.78;;;1.00;;
80823;SDS011;70228;59.128;37.936;2023-05-19T04:54:31;4.57;;;1.20;;
80823;SDS011;70228;59.128;37.936;2023-05-19T04:56:57;5.25;;;1.30;;
80823;SDS011;70228;59.128;37.936;2023-05-19T04:59:23;4.50;;;1.00;;
80823;SDS011;70228;59.128;37.936;2023-05-19T05:01:49;5.20;;;1.20;;
80823;SDS011;70228;59.128;37.936;2023-05-19T05:04:15;5.40;;;1.10;;
80823;SDS011;70228;59.128;37.936;2023-05-19T05:06:41;4.82;;;1.00;;
80823;SDS011;70228;59.128;37.936;2023-05-19T05:09:15;3.97;;;0.90;;
80823;SDS011;70228;59.128;37.936;2023-05-19T05:11:41;6.90;;;1.30;;
80823;SDS011;70228;59.128;37.936;2023-05-19T05:19:27;5.07;;;1.10;;
80823;SDS011;70228;59.128;37.936;2023-05-19T05:23:02;5.60;;;1.10;;
80823;SDS011;70228;59.128;37.936;2023-05-19T05:25:28;6.13;;;0.95;;
80823;SDS011;70228;59.128;37.936;2023-05-19T05:27:55;6.72;;;1.20;;
80823;SDS011;70228;59.128;37.936;2023-05-19T05:30:23;3.70;;;1.00;;
80823;SDS011;70228;59.128;37.936;2023-05-19T05:32:49;5.43;;;0.90;;
80823;SDS011;70228;59.128;37.936;2023-05-19T05:35:15;5.18;;;1.50;;
80823;SDS011;70228;59.128;37.936;2023-05-19T05:37:42;5.10;;;1.23;;
80823;SDS011;70228;59.128;37.936;2023-05-19T05:40:08;4.40;;;1.00;;
80823;SDS011;70228;59.128;37.936;2023-05-19T05:42:34;3.77;;;1.10;;
80823;SDS011;70228;59.128;37.936;2023-05-19T05:45:01;5.93;;;0.90;;
80823;SDS011;70228;59.128;37.936;2023-05-19T05:47:27;4.85;;;1.08;;
80823;SDS011;70228;59.128;37.936;2023-05-19T05:49:53;3.40;;;0.82;;
80823;SDS011;70228;59.128;37.936;2023-05-19T05:52:20;4.57;;;1.02;;
80823;SDS011;70228;59.128;37.936;2023-05-19T05:54:47;3.80;;;1.10;;
80823;SDS011;70228;59.128;37.936;2023-05-19T05:57:14;4.93;;;0.98;;
80823;SDS011;70228;59.128;37.936;2023-05-19T05:59:40;4.32;;;1.00;;
80823;SDS011;70228;59.128;37.936;2023-05-19T06:02:07;5.82;;;1.25;;
80823;SDS011;70228;59.128;37.936;2023-05-19T06:04:33;6.15;;;1.17;;
80823;SDS011;70228;59.128;37.936;2023-05-19T06:07:00;6.00;;;1.10;;
80823;SDS011;70228;59.128;37.936;2023-05-19T06:09:26;5.47;;;1.10;;
80823;SDS011;70228;59.128;37.936;2023-05-19T06:11:54;5.90;;;0.90;;
80823;SDS011;70228;59.128;37.936;2023-05-19T06:14:22;3.78;;;0.90;;
80823;SDS011;70228;59.128;37.936;2023-05-19T06:16:49;6.00;;;1.08;;
80823;SDS011;70228;59.128;37.936;2023-05-19T06:19:15;4.17;;;1.00;;
80823;SDS011;70228;59.128;37.936;2023-05-19T06:21:41;5.07;;;1.00;;
80823;SDS011;70228;59.128;37.936;2023-05-19T06:24:07;3.38;;;1.00;;
80823;SDS011;70228;59.128;37.936;2023-05-19T06:26:34;4.93;;;1.20;;
80823;SDS011;70228;59.128;37.936;2023-05-19T06:29:00;3.67;;;0.85;;
80823;SDS011;70228;59.128;37.936;2023-05-19T06:31:27;3.23;;;0.70;;
80823;SDS011;70228;59.128;37.936;2023-05-19T06:33:53;3.28;;;0.70;;
80823;SDS011;70228;59.128;37.936;2023-05-19T06:36:19;3.42;;;0.98;;
80823;SDS011;70228;59.128;37.936;2023-05-19T06:38:45;4.85;;;0.73;;
80823;SDS011;70228;59.128;37.936;2023-05-19T06:41:12;3.00;;;0.70;;
80823;SDS011;70228;59.128;37.936;2023-05-19T06:43:38;2.70;;;0.60;;
80823;SDS011;70228;59.128;37.936;2023-05-19T06:46:04;2.72;;;0.57;;
80823;SDS011;70228;59.128;37.936;2023-05-19T06:48:30;5.15;;;0.80;;
80823;SDS011;70228;59.128;37.936;2023-05-19T06:50:56;3.33;;;0.60;;
80823;SDS011;70228;59.128;37.936;2023-05-19T06:53:23;3.15;;;0.77;;
80823;SDS011;70228;59.128;37.936;2023-05-19T06:55:49;3.00;;;0.67;;
80823;SDS011;70228;59.128;37.936;2023-05-19T06:58:15;3.05;;;0.70;;
80823;SDS011;70228;59.128;37.936;2023-05-19T07:00:41;3.80;;;0.60;;
80823;SDS011;70228;59.128;37.936;2023-05-19T07:03:08;3.20;;;0.63;;
80823;SDS011;70228;59.128;37.936;2023-05-19T07:05:34;3.25;;;0.70;;
80823;SDS011;70228;59.128;37.936;2023-05-19T07:08:01;4.13;;;0.80;;
80823;SDS011;70228;59.128;37.936;2023-05-19T07:10:27;3.20;;;0.70;;
80823;SDS011;70228;59.128;37.936;2023-05-19T07:12:53;6.63;;;0.90;;
80823;SDS011;70228;59.128;37.936;2023-05-19T07:15:19;2.97;;;0.73;;
80823;SDS011;70228;59.128;37.936;2023-05-19T07:17:46;3.20;;;0.73;;
80823;SDS011;70228;59.128;37.936;2023-05-19T07:20:12;2.67;;;0.70;;
80823;SDS011;70228;59.128;37.936;2023-05-19T07:22:38;2.72;;;0.80;;
80823;SDS011;70228;59.128;37.936;2023-05-19T07:25:07;3.70;;;0.70;;
80823;SDS011;70228;59.128;37.936;2023-05-19T07:27:34;4.38;;;0.60;;
80823;SDS011;70228;59.128;37.936;2023-05-19T07:30:00;5.63;;;0.70;;
80823;SDS011;70228;59.128;37.936;2023-05-19T07:32:26;5.47;;;0.90;;
80823;SDS011;70228;59.128;37.936;2023-05-19T07:34:52;2.85;;;0.70;;
80823;SDS011;70228;59.128;37.936;2023-05-19T07:37:18;2.90;;;0.70;;
80823;SDS011;70228;59.128;37.936;2023-05-19T07:39:44;4.10;;;0.90;;
80823;SDS011;70228;59.128;37.936;2023-05-19T07:42:10;2.13;;;0.50;;
80823;SDS011;70228;59.128;37.936;2023-05-19T07:44:36;4.10;;;0.80;;
80823;SDS011;70228;59.128;37.936;2023-05-19T07:47:02;4.25;;;0.80;;
80823;SDS011;70228;59.128;37.936;2023-05-19T07:49:29;3.60;;;0.90;;
80823;SDS011;70228;59.128;37.936;2023-05-19T07:51:55;4.33;;;0.80;;
80823;SDS011;70228;59.128;37.936;2023-05-19T07:54:21;3.25;;;0.65;;
80823;SDS011;70228;59.128;37.936;2023-05-19T07:56:47;3.35;;;0.80;;
80823;SDS011;70228;59.128;37.936;2023-05-19T07:59:14;8.18;;;0.60;;
80823;SDS011;70228;59.128;37.936;2023-05-19T08:01:40;2.08;;;0.60;;
80823;SDS011;70228;59.128;37.936;2023-05-19T08:04:06;3.53;;;0.70;;
80823;SDS011;70228;59.128;37.936;2023-05-19T08:06:32;4.55;;;0.77;;
80823;SDS011;70228;59.128;37.936;2023-05-19T08:08:59;5.22;;;0.68;;
80823;SDS011;70228;59.128;37.936;2023-05-19T08:11:25;2.92;;;0.80;;
80823;SDS011;70228;59.128;37.936;2023-05-19T08:13:51;3.42;;;0.80;;
80823;SDS011;70228;59.128;37.936;2023-05-19T08:16:17;2.67;;;0.70;;
80823;SDS011;70228;59.128;37.936;2023-05-19T08:18:44;3.10;;;0.63;;
80823;SDS011;70228;59.128;37.936;2023-05-19T08:21:10;4.20;;;0.77;;
80823;SDS011;70228;59.128;37.936;2023-05-19T08:23:36;5.70;;;0.90;;
80823;SDS011;70228;59.128;37.936;2023-05-19T08:26:03;3.80;;;1.00;;
80823;SDS011;70228;59.128;37.936;2023-05-19T08:28:30;2.97;;;0.63;;
80823;SDS011;70228;59.128;37.936;2023-05-19T08:30:56;3.47;;;0.60;;
80823;SDS011;70228;59.128;37.936;2023-05-19T08:33:22;5.63;;;0.70;;
80823;SDS011;70228;59.128;37.936;2023-05-19T08:35:48;2.75;;;0.70;;
80823;SDS011;70228;59.128;37.936;2023-05-19T08:38:15;4.30;;;0.80;;
80823;SDS011;70228;59.128;37.936;2023-05-19T08:40:41;3.30;;;0.50;;
80823;SDS011;70228;59.128;37.936;2023-05-19T08:43:07;5.00;;;0.73;;
80823;SDS011;70228;59.128;37.936;2023-05-19T08:45:34;3.03;;;0.60;;
80823;SDS011;70228;59.128;37.936;2023-05-19T08:48:03;4.43;;;0.70;;
80823;SDS011;70228;59.128;37.936;2023-05-19T08:50:30;3.40;;;0.70;;
80823;SDS011;70228;59.128;37.936;2023-05-19T08:53:09;3.10;;;0.80;;
80823;SDS011;70228;59.128;37.936;2023-05-19T08:55:48;4.63;;;0.68;;
80823;SDS011;70228;59.128;37.936;2023-05-19T08:58:35;3.60;;;0.80;;
80823;SDS011;70228;59.128;37.936;2023-05-19T09:01:12;5.05;;;0.80;;
80823;SDS011;70228;59.128;37.936;2023-05-19T09:03:42;6.03;;;0.80;;
80823;SDS011;70228;59.128;37.936;2023-05-19T09:06:09;6.00;;;0.77;;
80823;SDS011;70228;59.128;37.936;2023-05-19T09:08:39;3.03;;;0.68;;
80823;SDS011;70228;59.128;37.936;2023-05-19T09:11:07;4.65;;;0.82;;
80823;SDS011;70228;59.128;37.936;2023-05-19T09:13:34;3.40;;;0.70;;
80823;SDS011;70228;59.128;37.936;2023-05-19T09:16:01;2.90;;;0.60;;
80823;SDS011;70228;59.128;37.936;2023-05-19T09:18:28;3.33;;;0.70;;
80823;SDS011;70228;59.128;37.936;2023-05-19T09:20:58;4.90;;;0.73;;
80823;SDS011;70228;59.128;37.936;2023-05-19T09:23:27;3.63;;;0.70;;
80823;SDS011;70228;59.128;37.936;2023-05-19T09:26:02;4.10;;;0.70;;
80823;SDS011;70228;59.128;37.936;2023-05-19T09:28:32;4.53;;;0.93;;
80823;SDS011;70228;59.128;37.936;2023-05-19T09:31:04;4.23;;;0.90;;
80823;SDS011;70228;59.128;37.936;2023-05-19T09:33:33;7.57;;;1.80;;
80823;SDS011;70228;59.128;37.936;2023-05-19T09:36:01;4.95;;;1.08;;
80823;SDS011;70228;59.128;37.936;2023-05-19T09:38:30;4.10;;;1.00;;
80823;SDS011;70228;59.128;37.936;2023-05-19T09:40:57;5.10;;;1.00;;
80823;SDS011;70228;59.128;37.936;2023-05-19T09:43:28;3.23;;;0.63;;
80823;SDS011;70228;59.128;37.936;2023-05-19T09:45:59;4.10;;;0.70;;
80823;SDS011;70228;59.128;37.936;2023-05-19T09:48:28;2.97;;;0.70;;
80823;SDS011;70228;59.128;37.936;2023-05-19T09:50:55;3.60;;;0.80;;
80823;SDS011;70228;59.128;37.936;2023-05-19T09:53:22;3.33;;;0.70;;
80823;SDS011;70228;59.128;37.936;2023-05-19T09:55:49;3.10;;;0.70;;
80823;SDS011;70228;59.128;37.936;2023-05-19T09:58:20;4.38;;;0.52;;
80823;SDS011;70228;59.128;37.936;2023-05-19T10:00:47;2.33;;;0.60;;
80823;SDS011;70228;59.128;37.936;2023-05-19T10:03:13;3.92;;;0.60;;
80823;SDS011;70228;59.128;37.936;2023-05-19T10:05:42;2.33;;;0.60;;
80823;SDS011;70228;59.128;37.936;2023-05-19T10:08:09;3.70;;;0.80;;
80823;SDS011;70228;59.128;37.936;2023-05-19T10:10:36;5.22;;;0.93;;
80823;SDS011;70228;59.128;37.936;2023-05-19T10:13:04;3.08;;;0.70;;
80823;SDS011;70228;59.128;37.936;2023-05-19T10:15:30;4.70;;;0.80;;
80823;SDS011;70228;59.128;37.936;2023-05-19T10:17:57;3.00;;;0.75;;
80823;SDS011;70228;59.128;37.936;2023-05-19T10:20:25;5.70;;;1.00;;
80823;SDS011;70228;59.128;37.936;2023-05-19T10:22:52;4.70;;;0.90;;
80823;SDS011;70228;59.128;37.936;2023-05-19T10:25:18;3.75;;;0.70;;
80823;SDS011;70228;59.128;37.936;2023-05-19T10:27:54;3.70;;;0.70;;
80823;SDS011;70228;59.128;37.936;2023-05-19T10:30:36;5.20;;;0.90;;
80823;SDS011;70228;59.128;37.936;2023-05-19T10:33:05;3.20;;;0.70;;
80823;SDS011;70228;59.128;37.936;2023-05-19T10:41:10;5.93;;;1.05;;
80823;SDS011;70228;59.128;37.936;2023-05-19T10:43:48;3.25;;;0.73;;
80823;SDS011;70228;59.128;37.936;2023-05-19T10:46:29;4.23;;;0.70;;
80823;SDS011;70228;59.128;37.936;2023-05-19T10:48:56;5.70;;;0.90;;
80823;SDS011;70228;59.128;37.936;2023-05-19T10:51:31;6.75;;;0.90;;
80823;SDS011;70228;59.128;37.936;2023-05-19T10:54:01;6.00;;;0.80;;
80823;SDS011;70228;59.128;37.936;2023-05-19T10:56:29;5.40;;;1.00;;
80823;SDS011;70228;59.128;37.936;2023-05-19T10:59:01;5.30;;;1.00;;
80823;SDS011;70228;59.128;37.936;2023-05-19T11:01:31;3.42;;;0.70;;
80823;SDS011;70228;59.128;37.936;2023-05-19T11:04:05;3.50;;;0.80;;
80823;SDS011;70228;59.128;37.936;2023-05-19T11:06:40;3.03;;;0.63;;
80823;SDS011;70228;59.128;37.936;2023-05-19T11:09:18;4.45;;;0.70;;
80823;SDS011;70228;59.128;37.936;2023-05-19T11:11:48;3.87;;;0.70;;
80823;SDS011;70228;59.128;37.936;2023-05-19T11:16:52;4.72;;;0.80;;
80823;SDS011;70228;59.128;37.936;2023-05-19T11:21:54;3.53;;;0.60;;
80823;SDS011;70228;59.128;37.936;2023-05-19T11:24:34;6.13;;;0.70;;
80823;SDS011;70228;59.128;37.936;2023-05-19T11:29:48;4.75;;;0.95;;
80823;SDS011;70228;59.128;37.936;2023-05-19T11:32:15;6.75;;;0.85;;
80823;SDS011;70228;59.128;37.936;2023-05-19T11:34:43;4.80;;;0.80;;
80823;SDS011;70228;59.128;37.936;2023-05-19T11:37:10;5.63;;;1.23;;
80823;SDS011;70228;59.128;37.936;2023-05-19T11:39:37;5.13;;;1.00;;
80823;SDS011;70228;59.128;37.936;2023-05-19T11:42:04;5.10;;;1.25;;
80823;SDS011;70228;59.128;37.936;2023-05-19T11:44:30;4.50;;;0.90;;
80823;SDS011;70228;59.128;37.936;2023-05-19T11:46:59;4.97;;;0.95;;
80823;SDS011;70228;59.128;37.936;2023-05-19T11:49:27;4.03;;;0.80;;
80823;SDS011;70228;59.128;37.936;2023-05-19T11:51:53;4.00;;;0.73;;
80823;SDS011;70228;59.128;37.936;2023-05-19T11:54:20;5.30;;;0.82;;
80823;SDS011;70228;59.128;37.936;2023-05-19T11:56:46;3.05;;;0.63;;
80823;SDS011;70228;59.128;37.936;2023-05-19T11:59:12;4.83;;;0.87;;
80823;SDS011;70228;59.128;37.936;2023-05-19T12:01:38;5.50;;;1.00;;
80823;SDS011;70228;59.128;37.936;2023-05-19T12:04:07;3.78;;;1.00;;
80823;SDS011;70228;59.128;37.936;2023-05-19T12:06:34;5.90;;;1.10;;
80823;SDS011;70228;59.128;37.936;2023-05-19T12:09:03;3.63;;;0.82;;
80823;SDS011;70228;59.128;37.936;2023-05-19T12:11:29;4.70;;;0.88;;
80823;SDS011;70228;59.128;37.936;2023-05-19T12:13:59;5.63;;;1.23;;
80823;SDS011;70228;59.128;37.936;2023-05-19T12:16:32;4.13;;;0.90;;
80823;SDS011;70228;59.128;37.936;2023-05-19T12:19:00;4.53;;;0.80;;
80823;SDS011;70228;59.128;37.936;2023-05-19T12:21:26;3.70;;;0.80;;
80823;SDS011;70228;59.128;37.936;2023-05-19T12:23:53;3.63;;;0.75;;
80823;SDS011;70228;59.128;37.936;2023-05-19T12:26:19;3.37;;;0.90;;
80823;SDS011;70228;59.128;37.936;2023-05-19T12:28:46;7.25;;;1.10;;
80823;SDS011;70228;59.128;37.936;2023-05-19T12:31:15;4.22;;;0.90;;
80823;SDS011;70228;59.128;37.936;2023-05-19T12:33:42;6.43;;;1.15;;
80823;SDS011;70228;59.128;37.936;2023-05-19T12:36:08;3.67;;;0.80;;
80823;SDS011;70228;59.128;37.936;2023-05-19T12:38:35;3.40;;;0.83;;
80823;SDS011;70228;59.128;37.936;2023-05-19T12:41:04;4.05;;;0.90;;
80823;SDS011;70228;59.128;37.936;2023-05-19T12:43:31;3.78;;;0.77;;
80823;SDS011;70228;59.128;37.936;2023-05-19T12:45:57;7.07;;;1.30;;
80823;SDS011;70228;59.128;37.936;2023-05-19T12:48:33;7.20;;;0.98;;
80823;SDS011;70228;59.128;37.936;2023-05-19T12:50:59;4.73;;;0.90;;
80823;SDS011;70228;59.128;37.936;2023-05-19T12:53:25;5.13;;;0.90;;
80823;SDS011;70228;59.128;37.936;2023-05-19T12:55:52;8.02;;;0.80;;
80823;SDS011;70228;59.128;37.936;2023-05-19T12:58:18;3.97;;;0.80;;
80823;SDS011;70228;59.128;37.936;2023-05-19T13:00:45;4.13;;;0.88;;
80823;SDS011;70228;59.128;37.936;2023-05-19T13:03:14;6.10;;;0.90;;
80823;SDS011;70228;59.128;37.936;2023-05-19T13:05:42;4.40;;;0.80;;
80823;SDS011;70228;59.128;37.936;2023-05-19T13:08:14;3.88;;;0.70;;
80823;SDS011;70228;59.128;37.936;2023-05-19T13:10:43;5.10;;;0.80;;
80823;SDS011;70228;59.128;37.936;2023-05-19T13:13:10;19.30;;;1.25;;
80823;SDS011;70228;59.128;37.936;2023-05-19T13:15:38;3.60;;;0.70;;
80823;SDS011;70228;59.128;37.936;2023-05-19T13:18:06;3.88;;;0.73;;
80823;SDS011;70228;59.128;37.936;2023-05-19T13:20:34;2.72;;;0.60;;
80823;SDS011;70228;59.128;37.936;2023-05-19T13:23:01;5.53;;;0.60;;
80823;SDS011;70228;59.128;37.936;2023-05-19T13:25:29;3.30;;;0.68;;
80823;SDS011;70228;59.128;37.936;2023-05-19T13:27:55;2.67;;;0.60;;
80823;SDS011;70228;59.128;37.936;2023-05-19T13:30:23;3.92;;;0.70;;
80823;SDS011;70228;59.128;37.936;2023-05-19T13:32:50;3.53;;;0.60;;
80823;SDS011;70228;59.128;37.936;2023-05-19T13:35:17;2.72;;;0.60;;
80823;SDS011;70228;59.128;37.936;2023-05-19T13:37:43;5.85;;;1.40;;
80823;SDS011;70228;59.128;37.936;2023-05-19T13:40:09;5.93;;;1.00;;
80823;SDS011;70228;59.128;37.936;2023-05-19T13:42:36;3.67;;;0.80;;
80823;SDS011;70228;59.128;37.936;2023-05-19T13:45:02;4.45;;;0.80;;
80823;SDS011;70228;59.128;37.936;2023-05-19T13:47:29;3.55;;;0.60;;
80823;SDS011;70228;59.128;37.936;2023-05-19T13:49:55;3.67;;;0.70;;
80823;SDS011;70228;59.128;37.936;2023-05-19T13:52:21;8.43;;;1.27;;
80823;SDS011;70228;59.128;37.936;2023-05-19T13:54:47;3.03;;;0.70;;
80823;SDS011;70228;59.128;37.936;2023-05-19T13:57:16;4.85;;;1.00;;
80823;SDS011;70228;59.128;37.936;2023-05-19T13:59:43;2.53;;;0.57;;
80823;SDS011;70228;59.128;37.936;2023-05-19T14:02:09;4.77;;;0.90;;
80823;SDS011;70228;59.128;37.936;2023-05-19T14:04:35;5.80;;;0.90;;
80823;SDS011;70228;59.128;37.936;2023-05-19T14:07:05;4.82;;;1.17;;
80823;SDS011;70228;59.128;37.936;2023-05-19T14:09:31;5.85;;;1.08;;
80823;SDS011;70228;59.128;37.936;2023-05-19T14:11:58;6.88;;;1.30;;
80823;SDS011;70228;59.128;37.936;2023-05-19T14:14:24;6.47;;;1.30;;
80823;SDS011;70228;59.128;37.936;2023-05-19T14:16:50;7.55;;;1.20;;
80823;SDS011;70228;59.128;37.936;2023-05-19T14:19:16;10.02;;;1.30;;
80823;SDS011;70228;59.128;37.936;2023-05-19T14:21:42;6.50;;;0.80;;
80823;SDS011;70228;59.128;37.936;2023-05-19T14:24:09;4.07;;;0.73;;
80823;SDS011;70228;59.128;37.936;2023-05-19T14:26:35;5.13;;;0.90;;
80823;SDS011;70228;59.128;37.936;2023-05-19T14:29:01;4.47;;;0.80;;
80823;SDS011;70228;59.128;37.936;2023-05-19T14:31:27;4.45;;;1.13;;
80823;SDS011;70228;59.128;37.936;2023-05-19T14:33:53;4.90;;;1.00;;
80823;SDS011;70228;59.128;37.936;2023-05-19T14:36:19;5.00;;;1.10;;
80823;SDS011;70228;59.128;37.936;2023-05-19T14:38:45;6.53;;;0.80;;
80823;SDS011;70228;59.128;37.936;2023-05-19T14:41:11;3.90;;;0.80;;
80823;SDS011;70228;59.128;37.936;2023-05-19T14:43:37;4.70;;;1.20;;
80823;SDS011;70228;59.128;37.936;2023-05-19T14:46:05;6.28;;;0.90;;
80823;SDS011;70228;59.128;37.936;2023-05-19T14:48:31;4.77;;;0.90;;
80823;SDS011;70228;59.128;37.936;2023-05-19T14:50:58;3.15;;;0.70;;
80823;SDS011;70228;59.128;37.936;2023-05-19T14:53:24;6.95;;;0.93;;
80823;SDS011;70228;59.128;37.936;2023-05-19T14:55:50;6.28;;;0.90;;
80823;SDS011;70228;59.128;37.936;2023-05-19T14:58:16;4.22;;;0.93;;
80823;SDS011;70228;59.128;37.936;2023-05-19T15:00:42;3.30;;;0.80;;
80823;SDS011;70228;59.128;37.936;2023-05-19T15:03:08;4.55;;;0.90;;
80823;SDS011;70228;59.128;37.936;2023-05-19T15:05:36;9.00;;;1.17;;